• Join FlightAware (Why Join?)
  • Login
  • US Flag GB Flag 
16:28 EST


 

Airport Tracker/Info


-or-


 

Live Flight TrackerFlight Track Log ✈ N6ZQ ✈ 12-Oct-2013 ✈ TNCC / CUR - TDPD / DOM

Flight Track Log - Related Links

Times and Time Zones

All times are in EDT time to prevent confusion due to time zone crossing. See the N6ZQ flight status page for this flight to view local times or setup timezone preferences in your user account.

Time Position Orientation Groundspeed Altitude Reporting Facility
EDT Latitude Longitude Course Direction KTS MPH feet Rate Location/Type
10:08 13.0295 -67.1114 90° East  Level Estimated
10:09 13.0508 -67.0641 93° East  Level Estimated
10:10 13.1015 -67.0633 North  Level FlightAware Approximate
10:11 13.1522 -67.0624 North  Level FlightAware Approximate
10:12 13.2029 -67.0615 North  Level FlightAware Approximate
10:13 13.2536 -67.0607 North  Level FlightAware Approximate
10:14 13.3043 -67.0598 North  Level FlightAware Approximate
10:15 13.3550 -67.0589 North  Level FlightAware Approximate
10:16 13.3741 -67.0106 94° East  Level Estimated
10:17 13.4240 -67.0015 10° North  Level FlightAware Approximate
10:18 13.4739 -66.9923 10° North  Level FlightAware Approximate
10:19 13.5238 -66.9831 10° North  Level FlightAware Approximate
10:20 13.5737 -66.9740 10° North  Level FlightAware Approximate
10:21 13.6236 -66.9648 10° North  Level FlightAware Approximate
10:22 13.6736 -66.9556 10° North  Level FlightAware Approximate
10:23 13.7235 -66.9464 10° North  Level FlightAware Approximate
10:24 13.7734 -66.9372 10° North  Level FlightAware Approximate
10:25 13.7896 -66.8878 94° East  Level Estimated
10:26 13.8370 -66.8691 21° North  Level FlightAware Approximate
10:27 13.8844 -66.8505 21° North  Level FlightAware Approximate
10:28 13.9318 -66.8319 21° North  Level FlightAware Approximate
10:29 13.9791 -66.8132 21° North  Level FlightAware Approximate
10:30 14.0265 -66.7946 21° North  Level FlightAware Approximate
10:31 14.0738 -66.7759 21° North  Level FlightAware Approximate
10:32 14.1212 -66.7572 21° North  Level FlightAware Approximate
10:33 14.1350 -66.7069 95° East  Level Estimated
10:34 14.1754 -66.6753 37° Northeast  Level FlightAware Approximate
10:35 14.2158 -66.6437 37° Northeast  Level FlightAware Approximate
10:36 14.2561 -66.6120 37° Northeast  Level FlightAware Approximate
10:37 14.2965 -66.5804 37° Northeast  Level FlightAware Approximate
10:38 14.3369 -66.5487 37° Northeast  Level FlightAware Approximate
10:39 14.3772 -66.5170 37° Northeast  Level FlightAware Approximate
10:40 14.4176 -66.4853 37° Northeast  Level FlightAware Approximate
10:41 14.4579 -66.4536 37° Northeast  Level FlightAware Approximate
10:42 14.4983 -66.4219 37° Northeast  Level FlightAware Approximate
10:43 14.5386 -66.3902 37° Northeast  Level FlightAware Approximate
10:44 14.5789 -66.3584 37° Northeast  Level FlightAware Approximate
10:45 14.5894 -66.3071 91° East  Level Estimated
10:45 15.8167 -67.3500 65° Northeast 160 184 11,000  Level San Juan Center
10:46 14.6109 -66.2597 65° Northeast  Level FlightAware Approximate
10:46 15.8167 -67.3000 90° East 190 219 11,000  Level San Juan Center
10:47 14.6324 -66.2123 65° Northeast  Level FlightAware Approximate
10:47 15.8167 -67.2333 90° East 200 230 11,000  Level San Juan Center
10:48 14.6539 -66.1648 65° Northeast  Level FlightAware Approximate
10:48 15.8167 -67.1833 90° East 190 219 11,000  Level San Juan Center
10:49 14.6755 -66.1174 65° Northeast  Level FlightAware Approximate
10:49 15.8333 -67.1333 71° East 190 219 11,000  Level San Juan Center
10:50 14.6970 -66.0699 65° Northeast  Level FlightAware Approximate
10:50 15.8333 -67.0833 90° East 180 207 11,000  Level San Juan Center
10:51 15.8333 -67.0333 90° East 190 219 11,000  Level San Juan Center
10:52 15.8500 -66.9667 75° East 180 207 11,000  Level San Juan Center
10:53 15.8500 -66.9167 90° East 190 219 11,000  Level San Juan Center
10:54 15.8500 -66.8667 90° East 190 219 11,000  Level San Juan Center
10:55 15.8667 -66.8167 71° East 190 219 11,000  Level San Juan Center
10:56 15.8667 -66.7500 90° East 190 219 11,000  Level San Juan Center
10:57 15.8667 -66.7000 90° East 190 219 11,000  Level San Juan Center
10:58 15.8833 -66.6500 71° East 180 207 11,000  Level San Juan Center
10:59 15.8833 -66.6000 90° East 180 207 11,000  Level San Juan Center
11:00 15.8833 -66.5500 90° East 180 207 11,000  Level San Juan Center
11:01 15.9000 -66.5000 71° East 180 207 11,000  Level San Juan Center
11:02 15.9000 -66.4333 90° East 180 207 11,000  Level San Juan Center
11:03 15.9167 -66.3833 71° East 190 219 11,000  Level San Juan Center
11:04 15.9167 -66.3333 90° East 190 219 11,000  Level San Juan Center
11:05 15.9167 -66.2833 90° East 170 196 11,000  Level San Juan Center
11:06 15.9333 -66.2333 71° East 200 230 11,000  Level San Juan Center
11:07 15.9333 -66.1667 90° East 190 219 11,000  Level San Juan Center
11:08 15.9333 -66.1167 90° East 190 219 11,000  Level San Juan Center
11:09 15.9500 -66.0667 71° East 190 219 11,000  Level San Juan Center
11:10 15.9500 -66.0167 90° East 180 207 11,000  Level San Juan Center
11:11 15.9667 -65.9667 71° East 190 219 11,000  Level San Juan Center
11:12 15.9667 -65.9000 90° East 190 219 11,000  Level San Juan Center
11:13 15.9667 -65.8500 90° East 190 219 11,000  Level San Juan Center
11:14 15.9833 -65.8000 71° East 190 219 11,000  Level San Juan Center
11:15 15.9833 -65.7500 90° East 190 219 11,000  Level San Juan Center
11:16 16.0000 -65.6833 75° East 190 219 11,000  Level San Juan Center
11:17 16.0000 -65.6333 90° East 190 219 11,000  Level San Juan Center
11:18 16.0000 -65.5833 90° East 190 219 11,000  Level San Juan Center
11:19 16.0167 -65.5333 71° East 190 219 11,000  Level San Juan Center
11:20 16.0167 -65.4833 90° East 180 207 11,000  Level San Juan Center
11:21 16.0167 -65.4167 90° East 180 207 11,000  Level San Juan Center
11:22 16.0333 -65.3667 71° East 180 207 11,000  Level San Juan Center
11:23 16.0333 -65.3167 90° East 190 219 11,000  Level San Juan Center
11:24 16.0500 -65.2500 75° East 190 219 11,000  Level San Juan Center
11:25 16.0500 -65.2000 90° East 180 207 11,000  Level San Juan Center
11:26 16.0500 -65.1500 90° East 190 219 11,000  Level San Juan Center
11:27 16.0667 -65.1000 71° East 160 184 11,000  Level San Juan Center
11:28 16.0667 -65.0500 90° East 180 207 11,000  Level San Juan Center
11:29 16.0667 -65.0000 90° East 180 207 11,000  Level San Juan Center
11:30 16.0833 -64.9500 71° East 190 219 11,000  Level San Juan Center
11:31 16.0833 -64.8833 90° East 190 219 11,000  Level San Juan Center
11:32 16.0833 -64.8333 90° East 190 219 11,000  Level San Juan Center
11:33 16.1000 -64.7833 71° East 190 219 11,000  Level San Juan Center
11:34 16.1000 -64.7333 90° East 180 207 11,000  Level San Juan Center
11:35 16.1167 -64.6667 75° East 180 207 11,000  Level San Juan Center
11:36 16.1167 -64.6167 90° East 190 219 11,000  Level San Juan Center
11:37 16.1167 -64.5667 90° East 190 219 11,000  Level San Juan Center
11:38 16.1333 -64.5167 71° East 190 219 11,000  Level San Juan Center
11:39 16.1333 -64.4667 90° East 170 196 11,000  Level San Juan Center
11:40 16.1333 -64.4000 90° East 190 219 11,000  Level San Juan Center
11:41 16.1500 -64.3667 62° Northeast 180 207 11,000  Level San Juan Center
11:42 16.1500 -64.3000 90° East 190 219 11,000  Level San Juan Center
11:43 16.1500 -64.2500 90° East 180 207 11,000  Level San Juan Center
11:44 16.1667 -64.2000 71° East 180 207 11,000  Level San Juan Center
11:45 16.1667 -64.1500 90° East 180 207 11,000  Level San Juan Center
11:46 16.1667 -64.1000 90° East 180 207 11,000  Level San Juan Center
11:47 16.1833 -64.0500 71° East 180 207 11,000  Level San Juan Center
11:48 16.1833 -64.0000 90° East 180 207 11,000  Level San Juan Center
11:49 16.1833 -63.9333 90° East 180 207 11,000  Level San Juan Center
11:50 16.2000 -63.8833 71° East 180 207 11,000  Level San Juan Center
11:51 16.2000 -63.8333 90° East 190 219 11,000  Level San Juan Center
11:52 16.2167 -63.7833 71° East 180 207 11,000  Level San Juan Center
11:53 16.2167 -63.7333 90° East 180 207 11,000  Level San Juan Center
11:54 16.2167 -63.6833 90° East 180 207 11,000  Level San Juan Center
11:56 16.2333 -63.5833 80° East 180 207 11,000  Level San Juan Center
11:57 16.2333 -63.5333 90° East 190 219 11,000  Level San Juan Center
11:58 16.2333 -63.4833 90° East 180 207 11,000  Level San Juan Center
11:59 16.2500 -63.4167 75° East 190 219 11,000  Level San Juan Center
12:00 16.2500 -63.3667 90° East 190 219 11,000  Level San Juan Center
12:01 16.2667 -63.3167 71° East 180 207 11,000  Level San Juan Center
12:02 16.2500 -63.2667 109° East 170 196 11,000  Level San Juan Center
12:03 16.2667 -63.2167 71° East 190 219 11,000  Level San Juan Center
12:04 16.2833 -63.1500 75° East 220 253 11,000  Level San Juan Center
12:05 16.2833 -63.1000 90° East 180 207 11,000  Level San Juan Center
12:06 16.2833 -63.0500 90° East 200 230 11,000  Level San Juan Center
12:08 16.2855 -62.9829 132° Southeast  Level FlightAware Approximate
12:15 16.0492 -62.7053 132° Southeast  Level FlightAware Approximate
12:16 16.0154 -62.6657 132° Southeast  Level FlightAware Approximate
12:17 15.9816 -62.6261 132° Southeast  Level FlightAware Approximate
12:18 15.9478 -62.5866 132° Southeast  Level FlightAware Approximate
12:19 15.9140 -62.5470 132° Southeast  Level FlightAware Approximate
12:20 15.8802 -62.5074 132° Southeast  Level FlightAware Approximate
12:21 15.8463 -62.4679 132° Southeast  Level FlightAware Approximate
12:22 15.8125 -62.4284 132° Southeast  Level FlightAware Approximate
12:23 15.7787 -62.3889 132° Southeast  Level FlightAware Approximate
12:24 15.7448 -62.3493 132° Southeast  Level FlightAware Approximate
12:25 15.7110 -62.3099 132° Southeast  Level FlightAware Approximate
12:26 15.6771 -62.2704 132° Southeast  Level FlightAware Approximate
12:27 15.6432 -62.2309 132° Southeast  Level FlightAware Approximate
12:28 15.6088 -62.1921 136° Southeast  Level FlightAware Approximate
12:29 15.6000 -62.1431 90° East  Level FlightAware Approximate
12:30 15.5957 -62.0905 96° East  Level FlightAware Approximate
12:31 15.5905 -62.0379 96° East  Level FlightAware Approximate
12:32 15.5852 -61.9854 96° East  Level FlightAware Approximate
12:33 15.5803 -61.9328 95° East  Level FlightAware Approximate
12:34 15.5755 -61.8802 95° East  Level FlightAware Approximate
12:35 15.5708 -61.8276 95° East  Level FlightAware Approximate
12:36 15.5660 -61.7750 95° East  Level FlightAware Approximate
12:37 15.5612 -61.7224 95° East  Level FlightAware Approximate
12:38 15.5564 -61.6698 95° East  Level FlightAware Approximate
12:39 15.5516 -61.6172 95° East  Level FlightAware Approximate
12:40 15.5471 -61.5645 95° East  Level FlightAware Approximate
12:41 15.5427 -61.5119 95° East  Level FlightAware Approximate
12:42 15.5383 -61.4593 95° East  Level FlightAware Approximate
12:43 15.5339 -61.4066 95° East  Level FlightAware Approximate
12:44 15.5243 -61.3548 102° East  Level FlightAware Approximate
12:45 15.5167 -61.3167 102° East  Level FlightAware Approximate
12:46 15.5470 -61.3000 102° East  Level Estimated
12:47 15.5470 -61.3000 102° East  Level Estimated
12:48 15.5470 -61.3000 102° East  Level Estimated
12:49 15.5470 -61.3000 102° East  Level Estimated
12:50 15.5470 -61.3000 102° East  Level Estimated
12:51 15.5470 -61.3000 102° East  Level Estimated
12:52 15.5470 -61.3000 102° East  Level Estimated
12:53 15.5470 -61.3000 102° East  Level Estimated
12:54 15.5470 -61.3000 102° East  Level Estimated
12:55 15.5470 -61.3000 102° East  Level Estimated
12:56 15.5470 -61.3000 102° East  Level Estimated
12:57 15.5470 -61.3000 102° East  Level Estimated
12:58 15.5470 -61.3000 102° East  Level Estimated
12:59 15.5470 -61.3000 102° East  Level Estimated
13:00 15.5470 -61.3000 102° East  Level Estimated
13:01 15.5470 -61.3000 102° East  Level Estimated
13:02 15.5470 -61.3000 102° East  Level Estimated
13:03 15.5470 -61.3000 102° East  Level Estimated
13:04 15.5470 -61.3000 102° East  Level Estimated